Time;durP1;ratioP1;P1;durP2;ratioP2;P2;SDS_P1;SDS_P2;PMS_P1;PMS_P2;Temp;Humidity;BMP_temperature;BMP_pressure;BME280_temperature;BME280_humidity;BME280_pressure;Samples;Min_cycle;Max_cycle;Signal;HPM_P1;HPM_P2
2021/01/30 00:00:35;;;;;;;;;;;22.70;99.90;;;;;;5055925;28;19912;-84
2021/01/30 00:03:01;;;;;;;;;;;22.70;99.90;;;;;;5071505;28;19963;-82
2021/01/30 00:05:29;;;;;;;;;;;22.70;99.90;;;;;;5062320;28;19925;-81
2021/01/30 00:07:56;;;;;;;;;;;22.70;99.90;;;;;;5056995;28;20011;-81
2021/01/30 00:10:23;;;;;;;;;;;22.70;99.90;;;;;;5055511;28;19972;-82
2021/01/30 00:12:50;;;;;;;;;;;22.70;99.90;;;;;;5055926;28;19909;-82
2021/01/30 00:15:19;;;;;;;;;;;22.70;99.90;;;;;;5056852;28;19916;-81
2021/01/30 00:17:45;;;;;;;;;;;22.70;99.90;;;;;;5051694;28;19999;-82
2021/01/30 00:20:13;;;;;;;;;;;22.70;99.90;;;;;;5072016;28;20368;-82
2021/01/30 00:22:40;;;;;;;;;;;22.70;99.90;;;;;;5059066;28;19913;-82
2021/01/30 00:25:08;;;;;;;;;;;22.70;99.90;;;;;;5048222;28;19924;-82
2021/01/30 00:27:35;;;;;;;;;;;22.70;99.90;;;;;;5054933;28;19913;-83
2021/01/30 00:30:01;;;;;;;;;;;22.80;99.90;;;;;;5035286;28;19955;-82
2021/01/30 00:32:28;;;;;;;;;;;22.80;99.90;;;;;;5045276;28;20436;-82
2021/01/30 00:34:56;;;;;;;;;;;22.90;99.90;;;;;;5055445;28;19962;-81
2021/01/30 00:37:24;;;;;;;;;;;22.90;99.90;;;;;;5072865;28;19919;-79
2021/01/30 00:39:51;;;;;;;;;;;22.90;99.90;;;;;;5050260;28;19916;-81
2021/01/30 00:42:23;;;;;;;;;;;23.00;99.90;;;;;;5059824;28;19959;-79
2021/01/30 00:44:50;;;;;;;;;;;23.00;99.90;;;;;;5054451;28;19920;-82
2021/01/30 00:47:17;;;;;;;;;;;22.90;99.90;;;;;;5061653;28;19909;-81
2021/01/30 00:49:44;;;;;;;;;;;22.90;99.90;;;;;;5060707;28;19912;-81
2021/01/30 00:52:13;;;;;;;;;;;22.90;99.90;;;;;;5052521;28;19916;-81
2021/01/30 00:54:40;;;;;;;;;;;22.90;99.90;;;;;;5064756;28;20320;-84
2021/01/30 00:57:07;;;;;;;;;;;22.90;99.90;;;;;;5058904;28;19909;-80
2021/01/30 00:59:33;;;;;;;;;;;22.90;99.90;;;;;;5058085;28;20260;-79
2021/01/30 01:02:00;;;;;;;;;;;22.90;99.90;;;;;;5064059;28;19917;-80
2021/01/30 01:04:27;;;;;;;;;;;22.90;99.90;;;;;;5069032;28;19917;-80
2021/01/30 01:06:53;;;;;;;;;;;22.90;99.90;;;;;;5066406;28;20000;-80
2021/01/30 01:09:20;;;;;;;;;;;22.90;99.90;;;;;;5055703;28;19920;-80
2021/01/30 01:11:48;;;;;;;;;;;22.90;99.90;;;;;;5068097;28;20413;-82
2021/01/30 01:14:15;;;;;;;;;;;22.80;99.90;;;;;;5066122;28;19912;-83
2021/01/30 01:16:42;;;;;;;;;;;22.80;99.90;;;;;;5058663;28;19966;-83
2021/01/30 01:19:08;;;;;;;;;;;22.80;99.90;;;;;;5054052;28;20449;-82
2021/01/30 01:21:35;;;;;;;;;;;22.90;99.90;;;;;;5057069;28;20359;-82
2021/01/30 01:24:02;;;;;;;;;;;22.90;99.90;;;;;;5055591;28;19971;-82
2021/01/30 01:26:28;;;;;;;;;;;22.90;99.90;;;;;;5058910;28;20434;-82
2021/01/30 01:28:55;;;;;;;;;;;23.00;99.90;;;;;;5060677;28;20013;-80
2021/01/30 01:31:22;;;;;;;;;;;23.00;99.90;;;;;;5066497;28;20355;-81
2021/01/30 01:33:49;;;;;;;;;;;23.00;99.90;;;;;;5057226;28;19928;-80
2021/01/30 01:36:16;;;;;;;;;;;23.00;99.90;;;;;;5054287;28;19913;-80
2021/01/30 01:38:44;;;;;;;;;;;23.10;99.90;;;;;;5056321;28;19909;-82
2021/01/30 01:41:11;;;;;;;;;;;23.10;99.90;;;;;;5054240;28;19909;-83
2021/01/30 01:43:38;;;;;;;;;;;23.10;99.90;;;;;;5052466;28;20415;-84
2021/01/30 01:46:14;;;;;;;;;;;23.20;99.90;;;;;;5056302;28;19952;-82
2021/01/30 01:48:49;;;;;;;;;;;23.20;99.90;;;;;;5053294;28;19919;-84
2021/01/30 01:51:22;;;;;;;;;;;23.30;99.90;;;;;;5053497;28;19912;-83
2021/01/30 01:53:49;;;;;;;;;;;23.40;99.90;;;;;;5052388;28;20417;-83
2021/01/30 01:56:20;;;;;;;;;;;23.40;99.90;;;;;;5054574;28;19935;-83
2021/01/30 01:58:49;;;;;;;;;;;23.40;99.90;;;;;;5053362;28;19915;-83
2021/01/30 02:01:16;;;;;;;;;;;23.30;99.90;;;;;;5053758;28;19909;-83
2021/01/30 02:03:47;;;;;;;;;;;23.30;99.90;;;;;;5058818;28;19920;-83
2021/01/30 02:06:13;;;;;;;;;;;23.20;99.90;;;;;;5079744;28;19939;-82
2021/01/30 02:08:40;;;;;;;;;;;23.20;99.90;;;;;;5054246;28;20474;-82
2021/01/30 02:11:06;;;;;;;;;;;23.20;99.90;;;;;;5039074;28;20271;-82
2021/01/30 02:13:41;;;;;;;;;;;23.30;99.90;;;;;;5033120;28;19909;-82
2021/01/30 02:16:26;;;;;;;;;;;23.40;99.90;;;;;;5036819;28;19984;-82
2021/01/30 02:19:01;;;;;;;;;;;23.40;99.90;;;;;;5053066;28;19916;-83
2021/01/30 02:21:46;;;;;;;;;;;23.40;99.90;;;;;;5053468;28;19920;-85
2021/01/30 02:24:27;;;;;;;;;;;23.40;99.90;;;;;;5031305;28;19917;-82
2021/01/30 02:27:12;;;;;;;;;;;23.40;99.90;;;;;;5033456;28;19913;-82
2021/01/30 02:29:57;;;;;;;;;;;23.40;99.90;;;;;;5032814;28;19931;-84
2021/01/30 02:32:29;;;;;;;;;;;23.40;99.90;;;;;;5032853;28;19959;-83
2021/01/30 02:34:56;;;;;;;;;;;23.40;99.90;;;;;;5032686;28;19928;-83
2021/01/30 02:37:45;;;;;;;;;;;23.50;99.90;;;;;;5033476;28;20360;-83
2021/01/30 02:40:15;;;;;;;;;;;23.40;99.90;;;;;;5052798;28;19920;-82
2021/01/30 02:42:47;;;;;;;;;;;23.40;99.90;;;;;;5048869;28;19923;-84
2021/01/30 02:45:34;;;;;;;;;;;23.50;99.90;;;;;;5055561;28;20358;-78
2021/01/30 02:48:11;;;;;;;;;;;23.50;99.90;;;;;;5052273;28;19923;-81
2021/01/30 02:50:45;;;;;;;;;;;23.60;99.90;;;;;;5057152;28;19917;-81
2021/01/30 02:53:17;;;;;;;;;;;23.60;99.90;;;;;;5059681;28;20387;-79
2021/01/30 02:55:46;;;;;;;;;;;23.70;99.90;;;;;;5052006;28;20023;-75
2021/01/30 02:58:17;;;;;;;;;;;23.70;99.90;;;;;;5052668;28;19913;-85
2021/01/30 03:00:45;;;;;;;;;;;23.70;99.90;;;;;;5051427;28;19921;-85
2021/01/30 03:03:12;;;;;;;;;;;23.70;99.90;;;;;;5055087;28;20468;-79
2021/01/30 03:05:39;;;;;;;;;;;23.70;99.90;;;;;;5055537;28;19929;-77
2021/01/30 03:08:23;;;;;;;;;;;23.80;99.90;;;;;;5052083;28;19992;-81
2021/01/30 03:10:57;;;;;;;;;;;23.90;99.90;;;;;;5055954;28;19913;-79
2021/01/30 03:13:30;;;;;;;;;;;23.90;99.90;;;;;;5045816;28;20007;-80
2021/01/30 03:16:02;;;;;;;;;;;24.00;99.90;;;;;;5060788;28;20004;-86
2021/01/30 03:18:33;;;;;;;;;;;24.00;99.90;;;;;;5055454;28;20499;-82
2021/01/30 03:21:03;;;;;;;;;;;24.10;99.90;;;;;;5064230;28;19920;-83
2021/01/30 03:23:30;;;;;;;;;;;24.10;99.90;;;;;;5052418;28;19909;-84
2021/01/30 03:26:00;;;;;;;;;;;24.10;99.90;;;;;;5051975;28;20519;-86
2021/01/30 03:28:27;;;;;;;;;;;24.20;99.90;;;;;;5054233;28;19928;-87
2021/01/30 03:30:53;;;;;;;;;;;24.20;99.90;;;;;;5051681;28;19995;-84
2021/01/30 03:33:20;;;;;;;;;;;24.30;99.90;;;;;;5051078;28;19912;-85
2021/01/30 03:35:46;;;;;;;;;;;24.30;99.90;;;;;;5056000;28;19913;-81
2021/01/30 03:38:13;;;;;;;;;;;24.40;99.90;;;;;;5072815;28;19915;-87
2021/01/30 03:40:42;;;;;;;;;;;24.50;99.90;;;;;;5070273;28;19913;-79
2021/01/30 03:43:10;;;;;;;;;;;24.60;99.90;;;;;;5055913;28;19920;-83
2021/01/30 03:45:37;;;;;;;;;;;24.70;99.90;;;;;;5056636;28;19924;-85
2021/01/30 03:48:04;;;;;;;;;;;24.90;99.90;;;;;;5056125;28;19963;-87
2021/01/30 03:50:31;;;;;;;;;;;24.90;99.90;;;;;;5054956;28;19970;-82
2021/01/30 03:52:58;;;;;;;;;;;25.00;99.90;;;;;;5055920;28;19944;-87
2021/01/30 03:55:24;;;;;;;;;;;25.00;99.90;;;;;;5055371;28;19915;-87
2021/01/30 03:57:51;;;;;;;;;;;25.10;99.90;;;;;;5056019;28;19976;-87
2021/01/30 04:00:21;;;;;;;;;;;25.10;99.90;;;;;;5055954;28;20343;-87
2021/01/30 04:02:48;;;;;;;;;;;25.30;99.90;;;;;;5056645;28;19909;-88
2021/01/30 04:05:19;;;;;;;;;;;25.30;99.90;;;;;;5056463;28;20367;-85
2021/01/30 04:07:46;;;;;;;;;;;25.30;99.90;;;;;;5056796;28;20003;-86
2021/01/30 04:10:16;;;;;;;;;;;25.40;99.90;;;;;;5056819;28;19909;-86
2021/01/30 04:12:43;;;;;;;;;;;25.40;99.90;;;;;;5056915;28;19909;-84
2021/01/30 04:15:14;;;;;;;;;;;25.50;99.90;;;;;;5058622;28;19999;-88
2021/01/30 04:17:41;;;;;;;;;;;25.50;99.90;;;;;;5057022;28;19909;-88
2021/01/30 04:20:08;;;;;;;;;;;25.60;99.90;;;;;;5056127;28;20371;-80
2021/01/30 04:22:35;;;;;;;;;;;25.50;99.90;;;;;;5057422;28;19917;-87
2021/01/30 04:25:02;;;;;;;;;;;25.40;99.90;;;;;;5055513;28;19917;-88
2021/01/30 04:27:28;;;;;;;;;;;25.40;99.90;;;;;;5056524;28;19973;-87
2021/01/30 04:29:55;;;;;;;;;;;25.50;99.90;;;;;;5056906;28;19955;-85
2021/01/30 04:32:21;;;;;;;;;;;25.50;99.90;;;;;;5056930;28;19916;-89
2021/01/30 04:34:48;;;;;;;;;;;25.60;99.90;;;;;;5056409;28;19979;-88
2021/01/30 04:37:15;;;;;;;;;;;25.60;99.90;;;;;;5056885;28;19912;-89
2021/01/30 04:39:41;;;;;;;;;;;25.80;99.90;;;;;;5056589;28;19909;-86
2021/01/30 04:42:14;;;;;;;;;;;26.00;99.90;;;;;;5056508;28;19959;-86
2021/01/30 04:44:54;;;;;;;;;;;26.10;99.90;;;;;;5056454;28;20015;-84
2021/01/30 04:47:35;;;;;;;;;;;26.10;99.90;;;;;;5056746;28;19908;-88
2021/01/30 04:50:05;;;;;;;;;;;26.20;99.90;;;;;;5055948;28;19943;-89
2021/01/30 04:52:50;;;;;;;;;;;26.10;99.90;;;;;;5053799;28;19995;-86
2021/01/30 04:55:22;;;;;;;;;;;26.20;99.90;;;;;;5055569;28;19913;-86
2021/01/30 04:57:52;;;;;;;;;;;26.30;99.90;;;;;;5064816;28;19912;-88
2021/01/30 05:00:37;;;;;;;;;;;26.10;99.90;;;;;;5077701;28;19908;-85
2021/01/30 05:03:15;;;;;;;;;;;26.10;99.90;;;;;;5060347;28;19986;-88
2021/01/30 05:05:45;;;;;;;;;;;26.30;99.90;;;;;;5064056;28;19927;-85
2021/01/30 05:08:20;;;;;;;;;;;26.20;99.90;;;;;;5055848;28;20050;-90
2021/01/30 05:10:54;;;;;;;;;;;26.50;99.90;;;;;;5055800;28;19953;-89
2021/01/30 05:13:39;;;;;;;;;;;26.50;99.90;;;;;;5055862;28;19956;-88
2021/01/30 05:16:09;;;;;;;;;;;26.50;99.90;;;;;;5056411;28;19920;-86
2021/01/30 05:18:40;;;;;;;;;;;26.40;99.90;;;;;;5055804;28;19909;-81
2021/01/30 05:21:18;;;;;;;;;;;26.40;99.90;;;;;;5054323;28;19909;-88
2021/01/30 05:23:47;;;;;;;;;;;26.30;99.90;;;;;;5056424;28;19954;-81
2021/01/30 05:26:27;;;;;;;;;;;26.30;99.90;;;;;;5058010;28;20386;-85
2021/01/30 05:29:11;;;;;;;;;;;26.30;99.90;;;;;;5055569;28;19951;-88
2021/01/30 05:31:50;;;;;;;;;;;26.20;99.90;;;;;;5055329;28;19913;-88
2021/01/30 05:34:16;;;;;;;;;;;26.10;99.90;;;;;;5055670;28;19928;-86
2021/01/30 05:36:58;;;;;;;;;;;26.20;99.90;;;;;;5055483;28;20007;-89
2021/01/30 05:39:42;;;;;;;;;;;26.20;99.90;;;;;;5058413;28;20379;-90
2021/01/30 05:42:12;;;;;;;;;;;26.10;99.90;;;;;;5054388;28;20011;-86
2021/01/30 05:44:43;;;;;;;;;;;26.10;99.90;;;;;;5071008;28;19989;-80
2021/01/30 05:47:18;;;;;;;;;;;26.00;99.90;;;;;;5055487;28;19913;-88
2021/01/30 05:49:55;;;;;;;;;;;25.90;99.90;;;;;;5057913;28;20393;-88
2021/01/30 05:52:25;;;;;;;;;;;25.80;99.90;;;;;;5061439;28;20433;-89
2021/01/30 05:54:52;;;;;;;;;;;25.80;99.90;;;;;;5064735;28;20371;-87
2021/01/30 05:57:19;;;;;;;;;;;25.80;99.90;;;;;;5068634;28;20327;-86
2021/01/30 05:59:50;;;;;;;;;;;25.80;99.90;;;;;;5064667;28;19991;-88
2021/01/30 06:02:19;;;;;;;;;;;25.80;99.90;;;;;;5070034;28;19913;-80
2021/01/30 06:04:46;;;;;;;;;;;25.80;99.90;;;;;;5054230;28;19990;-91
2021/01/30 06:07:24;;;;;;;;;;;25.80;99.90;;;;;;5056945;28;19916;-85
2021/01/30 06:09:52;;;;;;;;;;;25.80;99.90;;;;;;5062298;28;20568;-87
2021/01/30 06:12:26;;;;;;;;;;;25.80;99.90;;;;;;5061348;28;20370;-81
2021/01/30 06:14:55;;;;;;;;;;;25.60;99.90;;;;;;5053785;28;19909;-80
2021/01/30 06:17:24;;;;;;;;;;;25.50;99.90;;;;;;5054193;28;19916;-82
2021/01/30 06:20:02;;;;;;;;;;;25.50;99.90;;;;;;5059851;28;19920;-82
2021/01/30 06:22:29;;;;;;;;;;;25.60;99.90;;;;;;5042907;28;20260;-85
2021/01/30 06:24:55;;;;;;;;;;;25.60;99.90;;;;;;5064287;28;20454;-83
2021/01/30 06:27:25;;;;;;;;;;;25.60;99.90;;;;;;5037146;28;20228;-78
2021/01/30 06:29:54;;;;;;;;;;;25.60;99.90;;;;;;5058765;28;19916;-81
2021/01/30 06:32:23;;;;;;;;;;;25.60;99.90;;;;;;5064737;28;19913;-85
2021/01/30 06:34:51;;;;;;;;;;;25.60;99.90;;;;;;5073374;28;20321;-78
2021/01/30 06:37:32;;;;;;;;;;;25.50;99.90;;;;;;5073668;28;20466;-82
2021/01/30 06:40:07;;;;;;;;;;;25.50;99.90;;;;;;5060477;28;20359;-82
2021/01/30 06:42:35;;;;;;;;;;;25.60;99.90;;;;;;5053106;28;19913;-80
2021/01/30 06:45:03;;;;;;;;;;;25.60;99.90;;;;;;5061162;28;19943;-81
2021/01/30 06:47:30;;;;;;;;;;;25.60;99.90;;;;;;5058187;28;19913;-77
2021/01/30 06:49:58;;;;;;;;;;;25.70;99.90;;;;;;5053298;28;19909;-79
2021/01/30 06:52:32;;;;;;;;;;;25.60;99.90;;;;;;5053420;28;19917;-82
2021/01/30 06:55:04;;;;;;;;;;;25.60;99.90;;;;;;5053168;28;19940;-80
2021/01/30 06:57:33;;;;;;;;;;;25.60;99.90;;;;;;5055179;28;20360;-78
2021/01/30 07:00:28;;;;;;;;;;;25.60;99.90;;;;;;5053882;28;19934;-78
2021/01/30 07:03:08;;;;;;;;;;;25.60;99.90;;;;;;5048443;28;19909;-81
2021/01/30 07:05:50;;;;;;;;;;;25.60;99.90;;;;;;5053371;28;19923;-82
2021/01/30 07:08:43;;;;;;;;;;;25.60;99.90;;;;;;5053502;28;19992;-82
2021/01/30 07:11:16;;;;;;;;;;;25.60;99.90;;;;;;5051862;28;20335;-81
2021/01/30 07:13:52;;;;;;;;;;;25.50;99.90;;;;;;5053599;28;19916;-81
2021/01/30 07:16:27;;;;;;;;;;;25.60;99.90;;;;;;5053042;28;20347;-80
2021/01/30 07:19:01;;;;;;;;;;;25.60;99.90;;;;;;5052949;28;19952;-82
2021/01/30 07:21:29;;;;;;;;;;;25.60;99.90;;;;;;5035922;28;20273;-83
2021/01/30 07:23:56;;;;;;;;;;;25.60;99.90;;;;;;5033312;28;19921;-81
2021/01/30 07:26:34;;;;;;;;;;;25.60;99.90;;;;;;5032626;28;19909;-81
2021/01/30 07:29:05;;;;;;;;;;;25.70;99.90;;;;;;5032454;28;19963;-80
2021/01/30 07:31:33;;;;;;;;;;;25.60;99.90;;;;;;5033161;28;19979;-78
2021/01/30 07:34:18;;;;;;;;;;;25.60;99.90;;;;;;5032990;28;19994;-81
2021/01/30 07:36:56;;;;;;;;;;;25.70;99.90;;;;;;5032495;28;20466;-77
2021/01/30 07:39:26;;;;;;;;;;;25.60;99.90;;;;;;5032630;28;19960;-82
2021/01/30 07:41:56;;;;;;;;;;;25.60;99.90;;;;;;5033294;28;19909;-82
2021/01/30 07:44:52;;;;;;;;;;;25.60;99.90;;;;;;5032948;28;19917;-79
2021/01/30 07:47:25;;;;;;;;;;;25.50;99.90;;;;;;5032801;28;20296;-81
2021/01/30 07:49:57;;;;;;;;;;;25.40;99.90;;;;;;5033156;28;19909;-82
2021/01/30 07:52:26;;;;;;;;;;;25.30;99.90;;;;;;5033467;28;19925;-81
2021/01/30 07:54:56;;;;;;;;;;;25.20;99.90;;;;;;5033273;28;19940;-80
2021/01/30 07:57:56;;;;;;;;;;;25.10;99.90;;;;;;5032444;28;19909;-80
2021/01/30 08:00:42;;;;;;;;;;;25.00;99.90;;;;;;5031774;28;19909;-80
2021/01/30 08:03:17;;;;;;;;;;;24.90;99.90;;;;;;5031652;28;19909;-80
2021/01/30 08:05:43;;;;;;;;;;;24.80;99.90;;;;;;5033087;28;19968;-79
2021/01/30 08:08:14;;;;;;;;;;;24.80;99.90;;;;;;5032753;28;19992;-81
2021/01/30 08:10:59;;;;;;;;;;;24.70;99.90;;;;;;5033201;28;20004;-83
2021/01/30 08:13:38;;;;;;;;;;;24.70;99.90;;;;;;5032725;28;19952;-79
2021/01/30 08:16:11;;;;;;;;;;;24.60;99.90;;;;;;5048181;28;19915;-82
2021/01/30 08:18:42;;;;;;;;;;;24.60;99.90;;;;;;5032710;28;19909;-80
2021/01/30 08:21:23;;;;;;;;;;;24.60;99.90;;;;;;5034019;28;19913;-79
2021/01/30 08:24:10;;;;;;;;;;;24.50;99.90;;;;;;5077702;28;19919;-83
2021/01/30 08:26:39;;;;;;;;;;;24.50;99.90;;;;;;5042432;28;20298;-82
2021/01/30 08:29:08;;;;;;;;;;;24.50;99.90;;;;;;5065792;28;19909;-83
2021/01/30 08:31:37;;;;;;;;;;;24.40;99.90;;;;;;5058753;28;19909;-79
2021/01/30 08:34:19;;;;;;;;;;;24.30;99.90;;;;;;5072207;28;19921;-83
2021/01/30 08:36:48;;;;;;;;;;;24.30;99.90;;;;;;5036407;28;19913;-81
2021/01/30 08:39:32;;;;;;;;;;;24.30;99.90;;;;;;5044792;28;19916;-83
2021/01/30 08:42:18;;;;;;;;;;;24.20;99.90;;;;;;5072754;28;19913;-80
2021/01/30 08:44:48;;;;;;;;;;;24.20;99.90;;;;;;5060463;28;19920;-80
2021/01/30 08:47:17;;;;;;;;;;;24.10;99.90;;;;;;5037470;28;19913;-82
2021/01/30 08:50:01;;;;;;;;;;;24.00;99.90;;;;;;5045591;28;19915;-80
2021/01/30 08:52:34;;;;;;;;;;;24.00;99.90;;;;;;5055457;28;19920;-80
2021/01/30 08:55:19;;;;;;;;;;;23.90;99.90;;;;;;5055773;28;19913;-82
2021/01/30 08:57:46;;;;;;;;;;;23.90;99.90;;;;;;5050222;28;20007;-82
2021/01/30 09:00:32;;;;;;;;;;;23.90;99.90;;;;;;5059039;28;20284;-78
2021/01/30 09:03:00;;;;;;;;;;;23.80;99.90;;;;;;5066961;28;19916;-78
2021/01/30 09:05:26;;;;;;;;;;;23.70;99.90;;;;;;5067535;28;20375;-77
2021/01/30 09:07:54;;;;;;;;;;;23.80;99.90;;;;;;5070056;28;20019;-78
2021/01/30 09:10:29;;;;;;;;;;;23.70;99.90;;;;;;5060314;28;20414;-78
2021/01/30 09:13:00;;;;;;;;;;;23.80;99.90;;;;;;5063900;28;19913;-79
2021/01/30 09:15:42;;;;;;;;;;;23.80;99.90;;;;;;5064050;28;19976;-79
2021/01/30 09:18:14;;;;;;;;;;;23.70;99.90;;;;;;5053799;28;19965;-78
2021/01/30 09:21:00;;;;;;;;;;;23.70;99.90;;;;;;5055218;28;19909;-80
2021/01/30 09:23:56;;;;;;;;;;;23.70;99.90;;;;;;5051187;28;19909;-79
2021/01/30 09:26:23;;;;;;;;;;;23.80;99.90;;;;;;5043679;28;20390;-80
2021/01/30 09:28:55;;;;;;;;;;;23.70;99.90;;;;;;5053647;28;20016;-78
2021/01/30 09:31:21;;;;;;;;;;;23.70;99.90;;;;;;5053398;28;19952;-78
2021/01/30 09:34:08;;;;;;;;;;;23.70;99.90;;;;;;5050758;28;19921;-78
2021/01/30 09:36:40;;;;;;;;;;;23.70;99.90;;;;;;5044989;28;19940;-79
2021/01/30 09:39:21;;;;;;;;;;;23.60;99.90;;;;;;5053687;28;20283;-79
2021/01/30 09:41:47;;;;;;;;;;;23.60;99.90;;;;;;5055152;28;19913;-79
2021/01/30 09:44:22;;;;;;;;;;;23.60;99.90;;;;;;5053214;28;20278;-79
2021/01/30 09:46:51;;;;;;;;;;;23.60;99.90;;;;;;5054961;28;19909;-79
2021/01/30 09:49:41;;;;;;;;;;;23.60;99.90;;;;;;5054670;28;19912;-79
2021/01/30 09:52:08;;;;;;;;;;;23.60;99.90;;;;;;5048356;28;19913;-80
2021/01/30 09:54:35;;;;;;;;;;;23.50;99.90;;;;;;5054750;28;20067;-79
2021/01/30 09:57:06;;;;;;;;;;;23.50;99.90;;;;;;5054635;28;20330;-79
2021/01/30 09:59:33;;;;;;;;;;;23.50;99.90;;;;;;5054351;28;19916;-79
2021/01/30 10:02:09;;;;;;;;;;;23.50;99.90;;;;;;5054445;28;19983;-81
2021/01/30 10:04:36;;;;;;;;;;;23.50;99.90;;;;;;5054185;28;19951;-78
2021/01/30 10:07:11;;;;;;;;;;;23.50;99.90;;;;;;5054334;28;19916;-80
2021/01/30 10:09:39;;;;;;;;;;;23.50;99.90;;;;;;5054334;28;19999;-80
2021/01/30 10:12:07;;;;;;;;;;;23.50;99.90;;;;;;5054341;28;19932;-80
2021/01/30 10:14:35;;;;;;;;;;;23.50;99.90;;;;;;5053930;28;19916;-79
2021/01/30 10:17:04;;;;;;;;;;;23.50;99.90;;;;;;5054107;28;19909;-79
2021/01/30 10:19:31;;;;;;;;;;;23.50;99.90;;;;;;5054338;28;19954;-80
2021/01/30 10:21:58;;;;;;;;;;;23.40;99.90;;;;;;5054424;28;19939;-80
2021/01/30 10:24:29;;;;;;;;;;;23.40;99.90;;;;;;5054083;28;19935;-79
2021/01/30 10:27:10;;;;;;;;;;;23.50;99.90;;;;;;5054192;28;20002;-78
2021/01/30 10:29:36;;;;;;;;;;;23.50;99.90;;;;;;5054121;28;19970;-79
2021/01/30 10:32:07;;;;;;;;;;;23.60;99.90;;;;;;5054246;28;19996;-79
2021/01/30 10:34:39;;;;;;;;;;;23.50;99.90;;;;;;5053839;28;20253;-79
2021/01/30 10:37:12;;;;;;;;;;;23.50;99.90;;;;;;5053787;28;20279;-79
2021/01/30 10:39:42;;;;;;;;;;;23.50;99.90;;;;;;5053934;28;20003;-79
2021/01/30 10:42:13;;;;;;;;;;;23.40;99.90;;;;;;5053819;28;19912;-78
2021/01/30 10:44:44;;;;;;;;;;;23.40;99.90;;;;;;5052810;28;19913;-77
2021/01/30 10:47:11;;;;;;;;;;;23.40;99.90;;;;;;5053540;28;19908;-79
2021/01/30 10:49:38;;;;;;;;;;;23.40;99.90;;;;;;5053418;28;19909;-78
2021/01/30 10:52:04;;;;;;;;;;;23.50;99.90;;;;;;5053422;28;19948;-80
2021/01/30 10:54:31;;;;;;;;;;;23.40;99.90;;;;;;5053410;28;19909;-80
2021/01/30 10:57:09;;;;;;;;;;;23.40;99.90;;;;;;5053656;28;20334;-79
2021/01/30 10:59:55;;;;;;;;;;;23.30;99.90;;;;;;5053286;28;19963;-87
2021/01/30 11:02:27;;;;;;;;;;;23.30;99.90;;;;;;5048671;28;20291;-85
2021/01/30 11:05:06;;;;;;;;;;;23.30;99.90;;;;;;5056748;28;19963;-87
2021/01/30 11:07:49;;;;;;;;;;;23.30;99.90;;;;;;5062755;28;19916;-85
2021/01/30 11:10:39;;;;;;;;;;;23.30;99.90;;;;;;5056457;28;20344;-83
2021/01/30 11:13:10;;;;;;;;;;;23.30;99.90;;;;;;5048672;28;20390;-81
2021/01/30 11:15:42;;;;;;;;;;;23.30;99.90;;;;;;5055011;28;19917;-85
2021/01/30 11:18:13;;;;;;;;;;;23.20;99.90;;;;;;5050667;28;19936;-83
2021/01/30 11:20:44;;;;;;;;;;;23.30;99.90;;;;;;5061114;28;19995;-84
2021/01/30 11:23:11;;;;;;;;;;;23.20;99.90;;;;;;5052044;28;20389;-82
2021/01/30 11:25:39;;;;;;;;;;;23.30;99.90;;;;;;5064749;28;20302;-84
2021/01/30 11:28:06;;;;;;;;;;;23.20;99.90;;;;;;5054832;28;20375;-85
2021/01/30 11:30:33;;;;;;;;;;;23.20;99.90;;;;;;5052667;28;19919;-79
2021/01/30 11:33:04;;;;;;;;;;;23.20;99.90;;;;;;5051672;28;19909;-83
2021/01/30 11:35:36;;;;;;;;;;;23.20;99.90;;;;;;5061382;28;19927;-84
2021/01/30 11:38:22;;;;;;;;;;;23.10;99.90;;;;;;5065796;28;19944;-85
2021/01/30 11:40:53;;;;;;;;;;;23.10;99.90;;;;;;5047711;28;20007;-81
2021/01/30 11:43:20;;;;;;;;;;;23.10;99.90;;;;;;5050125;28;19981;-82
2021/01/30 11:45:47;;;;;;;;;;;23.10;99.90;;;;;;5049785;28;19967;-83
2021/01/30 11:48:15;;;;;;;;;;;23.20;99.90;;;;;;5052401;28;20258;-84
2021/01/30 11:50:42;;;;;;;;;;;23.10;99.90;;;;;;5061905;28;19912;-83
2021/01/30 11:53:19;;;;;;;;;;;23.10;99.90;;;;;;5063337;28;20017;-84
2021/01/30 11:55:46;;;;;;;;;;;23.10;99.90;;;;;;5050644;28;20275;-86
2021/01/30 11:58:13;;;;;;;;;;;23.10;99.90;;;;;;5058625;28;19916;-85
2021/01/30 12:00:40;;;;;;;;;;;23.10;99.90;;;;;;5070172;28;19947;-85
2021/01/30 12:03:06;;;;;;;;;;;23.10;99.90;;;;;;5068253;28;19925;-84
2021/01/30 12:05:33;;;;;;;;;;;23.10;99.90;;;;;;5057663;28;19939;-84
2021/01/30 12:08:00;;;;;;;;;;;23.10;99.90;;;;;;5073914;28;19920;-84
2021/01/30 12:10:27;;;;;;;;;;;23.00;99.90;;;;;;5057535;28;19954;-81
2021/01/30 12:12:53;;;;;;;;;;;23.00;99.90;;;;;;5054040;28;19912;-83
2021/01/30 12:15:20;;;;;;;;;;;23.00;99.90;;;;;;5054564;28;20318;-85
2021/01/30 12:17:48;;;;;;;;;;;23.00;99.90;;;;;;5053367;28;19919;-84
2021/01/30 12:20:19;;;;;;;;;;;23.00;99.90;;;;;;5053816;28;19936;-85
2021/01/30 12:22:46;;;;;;;;;;;23.00;99.90;;;;;;5054479;28;19967;-84
2021/01/30 12:25:13;;;;;;;;;;;23.00;99.90;;;;;;5054506;28;19956;-83
2021/01/30 12:27:41;;;;;;;;;;;23.00;99.90;;;;;;5054245;28;19912;-83
2021/01/30 12:30:08;;;;;;;;;;;23.00;99.90;;;;;;5057604;28;19912;-84
2021/01/30 12:32:35;;;;;;;;;;;23.00;99.90;;;;;;5055253;28;19909;-82
2021/01/30 12:35:03;;;;;;;;;;;23.10;99.90;;;;;;5054737;28;19921;-83
2021/01/30 12:37:32;;;;;;;;;;;23.10;99.90;;;;;;5054429;28;20391;-81
2021/01/30 12:39:59;;;;;;;;;;;23.10;99.90;;;;;;5055817;28;19916;-83
2021/01/30 12:42:26;;;;;;;;;;;23.20;99.90;;;;;;5056900;28;19931;-85
2021/01/30 12:44:53;;;;;;;;;;;23.10;99.90;;;;;;5060585;28;19976;-84
2021/01/30 12:47:29;;;;;;;;;;;23.10;99.90;;;;;;5061160;28;19909;-84
2021/01/30 12:49:56;;;;;;;;;;;23.10;99.90;;;;;;5056098;28;19916;-84
2021/01/30 12:52:22;;;;;;;;;;;23.00;99.90;;;;;;5054156;28;19909;-85
2021/01/30 12:54:50;;;;;;;;;;;23.00;99.90;;;;;;5057603;28;19912;-85
2021/01/30 12:57:17;;;;;;;;;;;23.00;99.90;;;;;;5054354;28;19916;-85
2021/01/30 12:59:44;;;;;;;;;;;22.90;99.90;;;;;;5053979;28;19909;-85
2021/01/30 13:02:11;;;;;;;;;;;22.90;99.90;;;;;;5053434;28;20513;-83
2021/01/30 13:04:38;;;;;;;;;;;22.80;99.90;;;;;;5053201;28;19921;-83
2021/01/30 13:07:05;;;;;;;;;;;22.80;99.90;;;;;;5055057;28;19958;-83
2021/01/30 13:09:33;;;;;;;;;;;22.80;99.90;;;;;;5073679;28;19908;-78
2021/01/30 13:12:00;;;;;;;;;;;22.70;99.90;;;;;;5064505;28;19975;-84
2021/01/30 13:14:26;;;;;;;;;;;22.70;99.90;;;;;;5052835;28;19908;-83
2021/01/30 13:16:53;;;;;;;;;;;22.70;99.90;;;;;;5052891;28;19909;-85
2021/01/30 13:19:20;;;;;;;;;;;22.60;99.90;;;;;;5053526;28;19909;-82
2021/01/30 13:21:47;;;;;;;;;;;22.70;99.90;;;;;;5053850;28;19909;-83
2021/01/30 13:24:14;;;;;;;;;;;22.70;99.90;;;;;;5053092;28;19928;-85
2021/01/30 13:26:41;;;;;;;;;;;22.70;99.90;;;;;;5052513;28;19917;-84
2021/01/30 13:29:11;;;;;;;;;;;22.70;99.90;;;;;;5052993;28;19915;-84
2021/01/30 13:31:46;;;;;;;;;;;22.70;99.90;;;;;;5051726;28;19917;-84
2021/01/30 13:34:13;;;;;;;;;;;22.70;99.90;;;;;;5053309;28;19979;-84
2021/01/30 13:36:40;;;;;;;;;;;22.70;99.90;;;;;;5052930;28;20048;-84
2021/01/30 13:39:07;;;;;;;;;;;22.70;99.90;;;;;;5052861;28;19924;-84
2021/01/30 13:41:34;;;;;;;;;;;22.70;99.90;;;;;;5053036;28;20007;-83
2021/01/30 13:44:00;;;;;;;;;;;22.60;99.90;;;;;;5052882;28;19913;-85
2021/01/30 13:46:27;;;;;;;;;;;22.70;99.90;;;;;;5052403;28;19931;-85
2021/01/30 13:48:54;;;;;;;;;;;22.70;99.90;;;;;;5053223;28;20004;-84
2021/01/30 13:51:20;;;;;;;;;;;22.60;99.90;;;;;;5052931;28;19916;-85
2021/01/30 13:53:47;;;;;;;;;;;22.60;99.90;;;;;;5052951;28;19959;-85
2021/01/30 13:56:14;;;;;;;;;;;22.60;99.90;;;;;;5052204;28;19913;-85
2021/01/30 13:58:41;;;;;;;;;;;22.60;99.90;;;;;;5052853;28;19916;-83
2021/01/30 14:01:07;;;;;;;;;;;22.60;99.90;;;;;;5052701;28;20283;-82
2021/01/30 14:03:34;;;;;;;;;;;22.60;99.90;;;;;;5052405;28;19935;-84
2021/01/30 14:06:01;;;;;;;;;;;22.50;99.90;;;;;;5052664;28;19931;-83
2021/01/30 14:08:36;;;;;;;;;;;22.50;99.90;;;;;;5052449;28;19920;-84
2021/01/30 14:11:03;;;;;;;;;;;22.50;99.90;;;;;;5052639;28;19909;-83
2021/01/30 14:13:30;;;;;;;;;;;22.50;99.90;;;;;;5052079;28;19913;-84
2021/01/30 14:15:56;;;;;;;;;;;22.50;99.90;;;;;;5052563;28;19915;-84
2021/01/30 14:18:23;;;;;;;;;;;22.40;99.90;;;;;;5052268;28;20023;-84
2021/01/30 14:20:50;;;;;;;;;;;22.40;99.90;;;;;;5051815;28;19999;-82
2021/01/30 14:23:17;;;;;;;;;;;22.30;99.90;;;;;;5051192;28;20282;-84
2021/01/30 14:25:43;;;;;;;;;;;22.30;99.90;;;;;;5051336;28;19982;-84
2021/01/30 14:28:10;;;;;;;;;;;22.20;99.90;;;;;;5052021;28;19943;-83
2021/01/30 14:30:37;;;;;;;;;;;22.20;99.90;;;;;;5050594;28;19913;-83
2021/01/30 14:33:04;;;;;;;;;;;22.20;99.90;;;;;;5051412;28;20512;-83
2021/01/30 14:35:31;;;;;;;;;;;22.20;99.90;;;;;;5051652;28;20367;-84
2021/01/30 14:37:58;;;;;;;;;;;22.20;99.90;;;;;;5052492;28;19909;-83